sensor_id;sensor_type;location;lat;lon;timestamp;pressure;altitude;pressure_sealevel;temperature;humidity
55685;BME280;41883;49.544;8.646;2022-09-03T00:01:48;100058.22;;;20.61;nan
55685;BME280;41883;49.544;8.646;2022-09-03T00:04:30;100058.81;;;20.63;nan
55685;BME280;41883;49.544;8.646;2022-09-03T00:07:03;100058.81;;;20.63;nan
55685;BME280;41883;49.544;8.646;2022-09-03T00:09:35;100059.03;;;20.62;nan
55685;BME280;41883;49.544;8.646;2022-09-03T00:14:52;100053.22;;;20.65;nan
55685;BME280;41883;49.544;8.646;2022-09-03T00:17:24;100058.00;;;20.63;nan
55685;BME280;41883;49.544;8.646;2022-09-03T00:20:06;100052.03;;;20.61;nan
55685;BME280;41883;49.544;8.646;2022-09-03T00:22:37;100060.22;;;20.66;nan
55685;BME280;41883;49.544;8.646;2022-09-03T00:25:06;100051.81;;;20.62;nan
55685;BME280;41883;49.544;8.646;2022-09-03T00:27:38;100046.44;;;20.62;nan
55685;BME280;41883;49.544;8.646;2022-09-03T00:30:09;100040.69;;;20.58;nan
55685;BME280;41883;49.544;8.646;2022-09-03T00:32:42;100046.31;;;20.57;nan
55685;BME280;41883;49.544;8.646;2022-09-03T00:35:33;100034.09;;;20.54;nan
55685;BME280;41883;49.544;8.646;2022-09-03T00:37:59;100033.28;;;20.54;nan
55685;BME280;41883;49.544;8.646;2022-09-03T00:43:52;100026.28;;;20.53;nan
55685;BME280;41883;49.544;8.646;2022-09-03T00:46:11;100021.94;;;20.52;nan
55685;BME280;41883;49.544;8.646;2022-09-03T00:54:52;100029.06;;;20.46;nan
55685;BME280;41883;49.544;8.646;2022-09-03T01:00:11;100018.78;;;20.43;nan
55685;BME280;41883;49.544;8.646;2022-09-03T01:02:50;100021.81;;;20.47;nan
55685;BME280;41883;49.544;8.646;2022-09-03T01:05:34;100014.59;;;20.47;nan
55685;BME280;41883;49.544;8.646;2022-09-03T01:30:04;100030.63;;;20.24;nan
55685;BME280;41883;49.544;8.646;2022-09-03T01:35:28;100041.19;;;19.88;nan
55685;BME280;41883;49.544;8.646;2022-09-03T01:41:06;100051.13;;;19.88;nan
55685;BME280;41883;49.544;8.646;2022-09-03T01:46:25;100055.50;;;19.82;nan
55685;BME280;41883;49.544;8.646;2022-09-03T01:49:02;100057.50;;;19.87;nan
55685;BME280;41883;49.544;8.646;2022-09-03T01:51:30;100052.53;;;19.90;nan
55685;BME280;41883;49.544;8.646;2022-09-03T01:59:10;100054.91;;;19.80;nan
55685;BME280;41883;49.544;8.646;2022-09-03T02:01:46;100054.91;;;19.80;nan
55685;BME280;41883;49.544;8.646;2022-09-03T02:04:20;100056.16;;;19.78;nan
55685;BME280;41883;49.544;8.646;2022-09-03T02:06:49;100052.69;;;19.77;nan
55685;BME280;41883;49.544;8.646;2022-09-03T02:09:15;100055.97;;;19.79;nan
55685;BME280;41883;49.544;8.646;2022-09-03T02:11:43;100054.31;;;19.78;nan
55685;BME280;41883;49.544;8.646;2022-09-03T02:14:11;100054.31;;;19.78;nan
55685;BME280;41883;49.544;8.646;2022-09-03T02:16:36;100051.47;;;19.73;nan
55685;BME280;41883;49.544;8.646;2022-09-03T02:19:06;100057.69;;;19.73;nan
55685;BME280;41883;49.544;8.646;2022-09-03T02:21:37;100057.09;;;19.71;nan
55685;BME280;41883;49.544;8.646;2022-09-03T02:24:04;100069.91;;;19.69;nan
55685;BME280;41883;49.544;8.646;2022-09-03T02:26:29;100068.88;;;19.64;nan
55685;BME280;41883;49.544;8.646;2022-09-03T02:28:56;100064.41;;;19.58;nan
55685;BME280;41883;49.544;8.646;2022-09-03T02:31:22;100058.22;;;19.57;nan
55685;BME280;41883;49.544;8.646;2022-09-03T02:33:48;100064.41;;;19.58;nan
55685;BME280;41883;49.544;8.646;2022-09-03T02:36:18;100061.13;;;19.56;nan
55685;BME280;41883;49.544;8.646;2022-09-03T02:38:45;100069.78;;;19.58;nan
55685;BME280;41883;49.544;8.646;2022-09-03T02:41:10;100065.22;;;19.58;nan
55685;BME280;41883;49.544;8.646;2022-09-03T02:44:04;100062.75;;;19.57;nan
55685;BME280;41883;49.544;8.646;2022-09-03T02:46:47;100064.47;;;19.51;nan
55685;BME280;41883;49.544;8.646;2022-09-03T02:49:14;100066.56;;;19.49;nan
55685;BME280;41883;49.544;8.646;2022-09-03T02:51:42;100067.81;;;19.46;nan
55685;BME280;41883;49.544;8.646;2022-09-03T02:54:10;100068.63;;;19.47;nan
55685;BME280;41883;49.544;8.646;2022-09-03T02:56:35;100066.41;;;19.44;nan
55685;BME280;41883;49.544;8.646;2022-09-03T02:59:03;100067.00;;;19.46;nan
55685;BME280;41883;49.544;8.646;2022-09-03T03:01:28;100064.97;;;19.41;nan
55685;BME280;41883;49.544;8.646;2022-09-03T03:03:54;100059.84;;;19.40;nan
55685;BME280;41883;49.544;8.646;2022-09-03T03:06:19;100062.59;;;19.33;nan
55685;BME280;41883;49.544;8.646;2022-09-03T03:08:45;100062.66;;;19.26;nan
55685;BME280;41883;49.544;8.646;2022-09-03T03:11:11;100052.59;;;19.22;nan
55685;BME280;41883;49.544;8.646;2022-09-03T03:13:36;100054.81;;;19.25;nan
55685;BME280;41883;49.544;8.646;2022-09-03T03:16:04;100052.75;;;19.27;nan
55685;BME280;41883;49.544;8.646;2022-09-03T03:18:33;100045.91;;;19.31;nan
55685;BME280;41883;49.544;8.646;2022-09-03T03:21:07;100048.97;;;19.35;nan
55685;BME280;41883;49.544;8.646;2022-09-03T03:23:33;100047.94;;;19.36;nan
55685;BME280;41883;49.544;8.646;2022-09-03T03:26:01;100053.44;;;19.41;nan
55685;BME280;41883;49.544;8.646;2022-09-03T03:28:26;100048.69;;;19.43;nan
55685;BME280;41883;49.544;8.646;2022-09-03T03:30:52;100048.09;;;19.41;nan
55685;BME280;41883;49.544;8.646;2022-09-03T03:33:17;100048.28;;;19.39;nan
55685;BME280;41883;49.544;8.646;2022-09-03T03:35:42;100056.56;;;19.38;nan
55685;BME280;41883;49.544;8.646;2022-09-03T03:38:07;100054.56;;;19.33;nan
55685;BME280;41883;49.544;8.646;2022-09-03T03:40:33;100042.22;;;19.25;nan
55685;BME280;41883;49.544;8.646;2022-09-03T03:42:58;100057.41;;;19.13;nan
55685;BME280;41883;49.544;8.646;2022-09-03T03:45:24;100069.22;;;19.05;nan
55685;BME280;41883;49.544;8.646;2022-09-03T03:47:49;100062.88;;;19.00;nan
55685;BME280;41883;49.544;8.646;2022-09-03T03:50:14;100064.13;;;18.97;nan
55685;BME280;41883;49.544;8.646;2022-09-03T03:52:40;100059.38;;;18.99;nan
55685;BME280;41883;49.544;8.646;2022-09-03T03:55:06;100063.88;;;19.05;nan
55685;BME280;41883;49.544;8.646;2022-09-03T03:57:31;100062.41;;;19.09;nan
55685;BME280;41883;49.544;8.646;2022-09-03T03:59:57;100050.25;;;19.07;nan
55685;BME280;41883;49.544;8.646;2022-09-03T04:02:22;100055.38;;;19.08;nan
55685;BME280;41883;49.544;8.646;2022-09-03T04:04:47;100059.91;;;19.08;nan
55685;BME280;41883;49.544;8.646;2022-09-03T04:07:13;100058.28;;;19.07;nan
55685;BME280;41883;49.544;8.646;2022-09-03T04:09:38;100063.22;;;19.10;nan
55685;BME280;41883;49.544;8.646;2022-09-03T04:12:03;100056.59;;;19.13;nan
55685;BME280;41883;49.544;8.646;2022-09-03T04:14:33;100070.00;;;19.13;nan
55685;BME280;41883;49.544;8.646;2022-09-03T04:16:59;100063.56;;;19.14;nan
55685;BME280;41883;49.544;8.646;2022-09-03T04:19:25;100055.16;;;19.10;nan
55685;BME280;41883;49.544;8.646;2022-09-03T04:21:53;100059.25;;;19.13;nan
55685;BME280;41883;49.544;8.646;2022-09-03T04:24:18;100059.06;;;19.14;nan
55685;BME280;41883;49.544;8.646;2022-09-03T04:26:44;100054.50;;;19.15;nan
55685;BME280;41883;49.544;8.646;2022-09-03T04:29:09;100056.94;;;19.16;nan
55685;BME280;41883;49.544;8.646;2022-09-03T04:31:36;100057.78;;;19.17;nan
55685;BME280;41883;49.544;8.646;2022-09-03T04:34:03;100059.88;;;19.15;nan
55685;BME280;41883;49.544;8.646;2022-09-03T04:36:31;100060.69;;;19.15;nan
55685;BME280;41883;49.544;8.646;2022-09-03T04:38:58;100053.25;;;19.17;nan
55685;BME280;41883;49.544;8.646;2022-09-03T04:41:26;100054.88;;;19.18;nan
55685;BME280;41883;49.544;8.646;2022-09-03T04:43:53;100058.75;;;19.22;nan
55685;BME280;41883;49.544;8.646;2022-09-03T04:46:19;100054.81;;;19.25;nan
55685;BME280;41883;49.544;8.646;2022-09-03T04:48:52;100065.09;;;19.28;nan
55685;BME280;41883;49.544;8.646;2022-09-03T04:51:24;100074.78;;;19.29;nan
55685;BME280;41883;49.544;8.646;2022-09-03T04:53:56;100075.41;;;19.31;nan
55685;BME280;41883;49.544;8.646;2022-09-03T04:56:30;100078.69;;;19.33;nan
55685;BME280;41883;49.544;8.646;2022-09-03T04:59:00;100082.78;;;19.36;nan
55685;BME280;41883;49.544;8.646;2022-09-03T05:01:28;100084.22;;;19.38;nan
55685;BME280;41883;49.544;8.646;2022-09-03T05:03:55;100085.63;;;19.41;nan
55685;BME280;41883;49.544;8.646;2022-09-03T05:06:22;100088.69;;;19.19;nan
55685;BME280;41883;49.544;8.646;2022-09-03T05:08:49;100088.31;;;18.52;nan
55685;BME280;41883;49.544;8.646;2022-09-03T05:11:15;100076.66;;;17.88;nan
55685;BME280;41883;49.544;8.646;2022-09-03T05:13:40;100089.63;;;17.65;nan
55685;BME280;41883;49.544;8.646;2022-09-03T05:16:10;100089.81;;;17.70;nan
55685;BME280;41883;49.544;8.646;2022-09-03T05:18:36;100093.94;;;17.66;nan
55685;BME280;41883;49.544;8.646;2022-09-03T05:21:04;100091.69;;;17.49;nan
55685;BME280;41883;49.544;8.646;2022-09-03T05:23:31;100091.13;;;17.07;nan
55685;BME280;41883;49.544;8.646;2022-09-03T05:25:57;100092.69;;;16.75;nan
55685;BME280;41883;49.544;8.646;2022-09-03T05:28:25;100094.72;;;16.60;nan
55685;BME280;41883;49.544;8.646;2022-09-03T05:31:02;100100.03;;;16.53;nan
55685;BME280;41883;49.544;8.646;2022-09-03T05:33:28;100106.78;;;16.42;nan
55685;BME280;41883;49.544;8.646;2022-09-03T05:36:00;100104.53;;;16.46;nan
55685;BME280;41883;49.544;8.646;2022-09-03T05:38:26;100106.84;;;16.69;nan
55685;BME280;41883;49.544;8.646;2022-09-03T05:40:51;100098.28;;;16.93;nan
55685;BME280;41883;49.544;8.646;2022-09-03T05:43:16;100103.88;;;17.12;nan
55685;BME280;41883;49.544;8.646;2022-09-03T05:45:42;100109.19;;;17.25;nan
55685;BME280;41883;49.544;8.646;2022-09-03T05:48:07;100105.50;;;17.39;nan
55685;BME280;41883;49.544;8.646;2022-09-03T05:50:32;100107.75;;;17.49;nan
55685;BME280;41883;49.544;8.646;2022-09-03T05:52:58;100109.16;;;17.58;nan
55685;BME280;41883;49.544;8.646;2022-09-03T05:55:23;100114.31;;;17.53;nan
55685;BME280;41883;49.544;8.646;2022-09-03T05:57:51;100116.16;;;17.66;nan
55685;BME280;41883;49.544;8.646;2022-09-03T06:00:17;100117.81;;;17.74;nan
55685;BME280;41883;49.544;8.646;2022-09-03T06:02:49;100124.78;;;17.88;nan
55685;BME280;41883;49.544;8.646;2022-09-03T06:05:14;100129.28;;;18.01;nan
55685;BME280;41883;49.544;8.646;2022-09-03T06:07:41;100136.22;;;18.15;nan
55685;BME280;41883;49.544;8.646;2022-09-03T06:10:06;100135.34;;;18.28;nan
55685;BME280;41883;49.544;8.646;2022-09-03T06:12:32;100141.28;;;18.43;nan
55685;BME280;41883;49.544;8.646;2022-09-03T06:14:57;100144.91;;;18.56;nan
55685;BME280;41883;49.544;8.646;2022-09-03T06:17:23;100146.69;;;18.68;nan
55685;BME280;41883;49.544;8.646;2022-09-03T06:19:48;100148.53;;;18.81;nan
55685;BME280;41883;49.544;8.646;2022-09-03T06:22:13;100143.84;;;19.02;nan
55685;BME280;41883;49.544;8.646;2022-09-03T06:24:38;100145.81;;;19.20;nan
55685;BME280;41883;49.544;8.646;2022-09-03T06:27:04;100144.78;;;19.46;nan
55685;BME280;41883;49.544;8.646;2022-09-03T06:29:29;100142.94;;;19.71;nan
55685;BME280;41883;49.544;8.646;2022-09-03T06:31:54;100162.56;;;19.90;nan
55685;BME280;41883;49.544;8.646;2022-09-03T06:34:20;100159.13;;;20.02;nan
55685;BME280;41883;49.544;8.646;2022-09-03T06:36:46;100162.19;;;20.05;nan
55685;BME280;41883;49.544;8.646;2022-09-03T06:39:12;100169.94;;;20.13;nan
55685;BME280;41883;49.544;8.646;2022-09-03T06:41:37;100169.06;;;20.20;nan
55685;BME280;41883;49.544;8.646;2022-09-03T06:44:05;100166.56;;;20.18;nan
55685;BME280;41883;49.544;8.646;2022-09-03T06:46:36;100158.44;;;20.06;nan
55685;BME280;41883;49.544;8.646;2022-09-03T06:49:03;100165.16;;;19.97;nan
55685;BME280;41883;49.544;8.646;2022-09-03T06:51:30;100173.50;;;19.39;nan
55685;BME280;41883;49.544;8.646;2022-09-03T06:54:05;100169.31;;;18.86;nan
55685;BME280;41883;49.544;8.646;2022-09-03T06:56:31;100175.16;;;18.63;nan
55685;BME280;41883;49.544;8.646;2022-09-03T06:58:58;100175.66;;;18.46;nan
55685;BME280;41883;49.544;8.646;2022-09-03T07:01:28;100178.38;;;18.33;nan
55685;BME280;41883;49.544;8.646;2022-09-03T07:03:56;100168.88;;;18.37;nan
55685;BME280;41883;49.544;8.646;2022-09-03T07:06:24;100165.00;;;18.33;nan
55685;BME280;41883;49.544;8.646;2022-09-03T07:08:50;100162.94;;;18.35;nan
55685;BME280;41883;49.544;8.646;2022-09-03T07:11:19;100162.72;;;18.30;nan
55685;BME280;41883;49.544;8.646;2022-09-03T07:13:48;100162.97;;;18.22;nan
55685;BME280;41883;49.544;8.646;2022-09-03T07:16:18;100161.38;;;18.08;nan
55685;BME280;41883;49.544;8.646;2022-09-03T07:18:45;100163.00;;;18.09;nan
55685;BME280;41883;49.544;8.646;2022-09-03T07:21:18;100172.50;;;18.04;nan
55685;BME280;41883;49.544;8.646;2022-09-03T07:23:43;100176.63;;;18.00;nan
55685;BME280;41883;49.544;8.646;2022-09-03T07:26:14;100180.31;;;18.06;nan
55685;BME280;41883;49.544;8.646;2022-09-03T07:28:41;100174.34;;;17.77;nan
55685;BME280;41883;49.544;8.646;2022-09-03T07:31:10;100185.50;;;17.81;nan
55685;BME280;41883;49.544;8.646;2022-09-03T07:33:37;100180.97;;;17.88;nan
55685;BME280;41883;49.544;8.646;2022-09-03T07:36:04;100189.00;;;17.88;nan
55685;BME280;41883;49.544;8.646;2022-09-03T07:38:31;100192.88;;;17.59;nan
55685;BME280;41883;49.544;8.646;2022-09-03T07:40:57;100194.50;;;17.47;nan
55685;BME280;41883;49.544;8.646;2022-09-03T07:43:27;100203.75;;;17.37;nan
55685;BME280;41883;49.544;8.646;2022-09-03T07:45:53;100208.91;;;17.26;nan
55685;BME280;41883;49.544;8.646;2022-09-03T07:48:20;100200.84;;;17.12;nan
55685;BME280;41883;49.544;8.646;2022-09-03T07:50:45;100212.78;;;17.10;nan
55685;BME280;41883;49.544;8.646;2022-09-03T07:53:12;100214.63;;;17.09;nan
55685;BME280;41883;49.544;8.646;2022-09-03T07:55:37;100217.28;;;17.16;nan
55685;BME280;41883;49.544;8.646;2022-09-03T07:58:02;100213.41;;;17.25;nan
55685;BME280;41883;49.544;8.646;2022-09-03T08:00:28;100210.34;;;17.28;nan
55685;BME280;41883;49.544;8.646;2022-09-03T08:02:53;100214.22;;;17.12;nan
55685;BME280;41883;49.544;8.646;2022-09-03T08:05:18;100215.03;;;17.13;nan
55685;BME280;41883;49.544;8.646;2022-09-03T08:07:45;100210.53;;;17.07;nan
55685;BME280;41883;49.544;8.646;2022-09-03T08:10:10;100212.34;;;17.06;nan
55685;BME280;41883;49.544;8.646;2022-09-03T08:12:37;100214.41;;;17.04;nan
55685;BME280;41883;49.544;8.646;2022-09-03T08:15:03;100206.00;;;17.07;nan
55685;BME280;41883;49.544;8.646;2022-09-03T08:17:29;100199.84;;;17.07;nan
55685;BME280;41883;49.544;8.646;2022-09-03T08:19:54;100192.38;;;16.89;nan
55685;BME280;41883;49.544;8.646;2022-09-03T08:22:21;100180.16;;;16.66;nan
55685;BME280;41883;49.544;8.646;2022-09-03T08:24:46;100168.03;;;16.57;nan
55685;BME280;41883;49.544;8.646;2022-09-03T08:27:12;100160.75;;;16.44;nan
55685;BME280;41883;49.544;8.646;2022-09-03T08:29:38;100164.03;;;16.33;nan
55685;BME280;41883;49.544;8.646;2022-09-03T08:32:03;100166.47;;;16.34;nan
55685;BME280;41883;49.544;8.646;2022-09-03T08:34:29;100171.00;;;16.34;nan
55685;BME280;41883;49.544;8.646;2022-09-03T08:36:54;100170.94;;;16.27;nan
55685;BME280;41883;49.544;8.646;2022-09-03T08:39:19;100175.06;;;16.23;nan
55685;BME280;41883;49.544;8.646;2022-09-03T08:42:01;100172.72;;;16.13;nan
55685;BME280;41883;49.544;8.646;2022-09-03T08:47:01;100190.81;;;16.18;nan
55685;BME280;41883;49.544;8.646;2022-09-03T08:52:20;100203.78;;;16.21;nan
55685;BME280;41883;49.544;8.646;2022-09-03T08:54:49;100220.78;;;16.20;nan
55685;BME280;41883;49.544;8.646;2022-09-03T08:57:18;100228.44;;;16.30;nan
55685;BME280;41883;49.544;8.646;2022-09-03T08:59:44;100233.41;;;16.40;nan
55685;BME280;41883;49.544;8.646;2022-09-03T09:05:20;100259.34;;;16.94;nan
55685;BME280;41883;49.544;8.646;2022-09-03T09:08:05;100257.56;;;17.08;nan
55685;BME280;41883;49.544;8.646;2022-09-03T09:10:43;100265.00;;;17.19;nan
55685;BME280;41883;49.544;8.646;2022-09-03T09:13:32;100261.34;;;17.47;nan
55685;BME280;41883;49.544;8.646;2022-09-03T09:16:37;100260.16;;;17.69;nan
55685;BME280;41883;49.544;8.646;2022-09-03T09:19:23;100262.84;;;17.76;nan
55685;BME280;41883;49.544;8.646;2022-09-03T09:21:58;100271.50;;;17.91;nan
55685;BME280;41883;49.544;8.646;2022-09-03T09:24:26;100273.13;;;18.06;nan
55685;BME280;41883;49.544;8.646;2022-09-03T09:26:58;100279.50;;;18.18;nan
55685;BME280;41883;49.544;8.646;2022-09-03T09:29:26;100283.63;;;18.00;nan
55685;BME280;41883;49.544;8.646;2022-09-03T09:31:55;100281.56;;;17.82;nan
55685;BME280;41883;49.544;8.646;2022-09-03T09:34:20;100272.06;;;17.80;nan
55685;BME280;41883;49.544;8.646;2022-09-03T09:36:48;100268.81;;;17.85;nan
55685;BME280;41883;49.544;8.646;2022-09-03T09:39:14;100267.38;;;18.02;nan
55685;BME280;41883;49.544;8.646;2022-09-03T09:41:41;100266.97;;;18.05;nan
55685;BME280;41883;49.544;8.646;2022-09-03T09:44:07;100272.09;;;18.07;nan
55685;BME280;41883;49.544;8.646;2022-09-03T09:46:38;100271.47;;;18.18;nan
55685;BME280;41883;49.544;8.646;2022-09-03T09:49:36;100265.84;;;18.46;nan
55685;BME280;41883;49.544;8.646;2022-09-03T09:52:06;100261.03;;;18.88;nan
55685;BME280;41883;49.544;8.646;2022-09-03T09:54:32;100259.69;;;19.99;nan
55685;BME280;41883;49.544;8.646;2022-09-03T09:57:00;100257.13;;;21.75;nan
55685;BME280;41883;49.544;8.646;2022-09-03T09:59:27;100255.28;;;22.35;nan
55685;BME280;41883;49.544;8.646;2022-09-03T10:02:01;100260.47;;;23.63;nan
55685;BME280;41883;49.544;8.646;2022-09-03T10:04:30;100266.25;;;23.71;nan
55685;BME280;41883;49.544;8.646;2022-09-03T10:09:30;100259.88;;;23.61;nan
55685;BME280;41883;49.544;8.646;2022-09-03T10:12:15;100262.09;;;23.98;nan
55685;BME280;41883;49.544;8.646;2022-09-03T10:14:48;100259.56;;;24.25;nan
55685;BME280;41883;49.544;8.646;2022-09-03T10:17:25;100255.81;;;25.41;nan
55685;BME280;41883;49.544;8.646;2022-09-03T10:20:10;100260.16;;;24.71;nan
55685;BME280;41883;49.544;8.646;2022-09-03T10:22:55;100253.44;;;24.73;nan
55685;BME280;41883;49.544;8.646;2022-09-03T10:25:24;100252.56;;;25.39;nan
55685;BME280;41883;49.544;8.646;2022-09-03T10:27:51;100246.91;;;26.58;nan
55685;BME280;41883;49.544;8.646;2022-09-03T10:30:18;100239.19;;;27.18;nan
55685;BME280;41883;49.544;8.646;2022-09-03T10:35:27;100238.75;;;29.57;nan
55685;BME280;41883;49.544;8.646;2022-09-03T10:38:17;100241.47;;;30.44;nan
55685;BME280;41883;49.544;8.646;2022-09-03T10:43:50;100231.06;;;31.46;nan
55685;BME280;41883;49.544;8.646;2022-09-03T10:46:28;100225.31;;;32.08;nan
55685;BME280;41883;49.544;8.646;2022-09-03T10:51:34;100219.72;;;31.53;nan
55685;BME280;41883;49.544;8.646;2022-09-03T10:54:18;100216.28;;;32.63;nan
55685;BME280;41883;49.544;8.646;2022-09-03T10:59:45;100217.25;;;33.94;nan
55685;BME280;41883;49.544;8.646;2022-09-03T11:05:06;100217.25;;;35.26;nan
55685;BME280;41883;49.544;8.646;2022-09-03T11:07:56;100216.84;;;35.53;nan
55685;BME280;41883;49.544;8.646;2022-09-03T11:10:28;100222.97;;;36.74;nan
55685;BME280;41883;49.544;8.646;2022-09-03T11:15:55;100141.84;;;37.51;nan
55685;BME280;41883;49.544;8.646;2022-09-03T11:18:46;100147.75;;;38.11;nan
55685;BME280;41883;49.544;8.646;2022-09-03T11:21:17;100150.91;;;38.37;nan
55685;BME280;41883;49.544;8.646;2022-09-03T11:23:46;100136.41;;;38.93;nan
55685;BME280;41883;49.544;8.646;2022-09-03T11:26:17;100129.38;;;40.07;nan
55685;BME280;41883;49.544;8.646;2022-09-03T11:31:29;100132.16;;;40.07;nan
55685;BME280;41883;49.544;8.646;2022-09-03T11:34:00;100131.75;;;40.60;nan
55685;BME280;41883;49.544;8.646;2022-09-03T11:36:30;100129.09;;;38.73;nan
55685;BME280;41883;49.544;8.646;2022-09-03T11:38:56;100125.97;;;36.18;nan
55685;BME280;41883;49.544;8.646;2022-09-03T11:41:25;100113.81;;;34.60;nan
55685;BME280;41883;49.544;8.646;2022-09-03T11:43:51;100115.56;;;33.50;nan
55685;BME280;41883;49.544;8.646;2022-09-03T11:48:46;100107.66;;;32.72;nan
55685;BME280;41883;49.544;8.646;2022-09-03T11:53:53;100120.44;;;35.97;nan
55685;BME280;41883;49.544;8.646;2022-09-03T11:56:18;100109.75;;;36.46;nan
55685;BME280;41883;49.544;8.646;2022-09-03T11:58:43;100105.19;;;35.70;nan
55685;BME280;41883;49.544;8.646;2022-09-03T12:01:10;100103.13;;;34.50;nan
55685;BME280;41883;49.544;8.646;2022-09-03T12:06:22;100184.75;;;33.25;nan
55685;BME280;41883;49.544;8.646;2022-09-03T12:14:54;100053.94;;;32.04;nan
55685;BME280;41883;49.544;8.646;2022-09-03T12:19:56;100200.41;;;32.24;nan
55685;BME280;41883;49.544;8.646;2022-09-03T12:22:25;100184.13;;;31.72;nan
55685;BME280;41883;49.544;8.646;2022-09-03T12:24:53;100173.09;;;31.63;nan
55685;BME280;41883;49.544;8.646;2022-09-03T12:27:24;100168.22;;;31.60;nan
55685;BME280;41883;49.544;8.646;2022-09-03T12:30:02;100173.81;;;31.36;nan
55685;BME280;41883;49.544;8.646;2022-09-03T12:32:30;100171.34;;;31.21;nan
55685;BME280;41883;49.544;8.646;2022-09-03T12:34:56;100164.94;;;30.55;nan
55685;BME280;41883;49.544;8.646;2022-09-03T12:37:24;100165.19;;;30.10;nan
55685;BME280;41883;49.544;8.646;2022-09-03T12:39:53;100159.69;;;29.62;nan
55685;BME280;41883;49.544;8.646;2022-09-03T12:42:28;100160.84;;;29.56;nan
55685;BME280;41883;49.544;8.646;2022-09-03T12:44:55;100156.91;;;29.38;nan
55685;BME280;41883;49.544;8.646;2022-09-03T12:47:22;100169.50;;;28.94;nan
55685;BME280;41883;49.544;8.646;2022-09-03T12:49:50;100173.47;;;28.68;nan
55685;BME280;41883;49.544;8.646;2022-09-03T12:52:29;100177.09;;;28.43;nan
55685;BME280;41883;49.544;8.646;2022-09-03T12:57:30;100175.91;;;28.04;nan
55685;BME280;41883;49.544;8.646;2022-09-03T13:00:02;100183.03;;;27.85;nan
55685;BME280;41883;49.544;8.646;2022-09-03T13:02:36;100178.66;;;27.94;nan
55685;BME280;41883;49.544;8.646;2022-09-03T13:05:04;100182.69;;;28.02;nan
55685;BME280;41883;49.544;8.646;2022-09-03T13:07:34;100176.16;;;28.13;nan
55685;BME280;41883;49.544;8.646;2022-09-03T13:10:06;100177.53;;;28.00;nan
55685;BME280;41883;49.544;8.646;2022-09-03T13:12:43;100180.53;;;27.93;nan
55685;BME280;41883;49.544;8.646;2022-09-03T13:15:21;100183.53;;;27.77;nan
55685;BME280;41883;49.544;8.646;2022-09-03T13:18:00;100191.69;;;27.71;nan
55685;BME280;41883;49.544;8.646;2022-09-03T13:20:46;100181.38;;;27.73;nan
55685;BME280;41883;49.544;8.646;2022-09-03T13:23:59;100188.94;;;28.07;nan
55685;BME280;41883;49.544;8.646;2022-09-03T13:26:28;100192.22;;;27.79;nan
55685;BME280;41883;49.544;8.646;2022-09-03T13:31:53;100183.53;;;26.95;nan
55685;BME280;41883;49.544;8.646;2022-09-03T13:34:23;100193.25;;;26.75;nan
55685;BME280;41883;49.544;8.646;2022-09-03T13:36:59;100186.72;;;26.71;nan
55685;BME280;41883;49.544;8.646;2022-09-03T13:42:02;100180.50;;;26.86;nan
55685;BME280;41883;49.544;8.646;2022-09-03T13:44:50;100176.47;;;26.94;nan
55685;BME280;41883;49.544;8.646;2022-09-03T13:47:30;100179.25;;;27.40;nan
55685;BME280;41883;49.544;8.646;2022-09-03T13:50:17;100176.50;;;27.24;nan
55685;BME280;41883;49.544;8.646;2022-09-03T13:55:42;100174.59;;;27.50;nan
55685;BME280;41883;49.544;8.646;2022-09-03T13:58:27;100175.16;;;27.52;nan
55685;BME280;41883;49.544;8.646;2022-09-03T14:03:53;100172.91;;;28.01;nan
55685;BME280;41883;49.544;8.646;2022-09-03T14:09:26;100170.22;;;27.80;nan
55685;BME280;41883;49.544;8.646;2022-09-03T14:22:28;100158.00;;;26.80;nan
55685;BME280;41883;49.544;8.646;2022-09-03T14:25:08;100160.06;;;26.53;nan
55685;BME280;41883;49.544;8.646;2022-09-03T14:27:35;100151.28;;;26.20;nan
55685;BME280;41883;49.544;8.646;2022-09-03T14:30:32;100163.06;;;25.93;nan
55685;BME280;41883;49.544;8.646;2022-09-03T14:33:30;100166.69;;;25.72;nan
55685;BME280;41883;49.544;8.646;2022-09-03T14:38:53;100167.59;;;25.82;nan
55685;BME280;41883;49.544;8.646;2022-09-03T14:47:02;100182.91;;;26.04;nan
55685;BME280;41883;49.544;8.646;2022-09-03T14:50:07;100173.41;;;25.64;nan
55685;BME280;41883;49.544;8.646;2022-09-03T14:58:19;100168.56;;;24.74;nan
55685;BME280;41883;49.544;8.646;2022-09-03T15:00:54;100173.69;;;24.49;nan
55685;BME280;41883;49.544;8.646;2022-09-03T15:09:16;100177.69;;;24.24;nan
55685;BME280;41883;49.544;8.646;2022-09-03T15:11:51;100177.59;;;24.19;nan
55685;BME280;41883;49.544;8.646;2022-09-03T15:14:28;100185.06;;;24.12;nan
55685;BME280;41883;49.544;8.646;2022-09-03T15:23:14;100182.59;;;23.88;nan
55685;BME280;41883;49.544;8.646;2022-09-03T15:28:44;100180.88;;;23.82;nan
55685;BME280;41883;49.544;8.646;2022-09-03T15:31:21;100182.44;;;23.78;nan
55685;BME280;41883;49.544;8.646;2022-09-03T15:36:50;100177.38;;;23.82;nan
55685;BME280;41883;49.544;8.646;2022-09-03T15:39:35;100181.47;;;23.84;nan
55685;BME280;41883;49.544;8.646;2022-09-03T15:42:09;100180.94;;;23.87;nan
55685;BME280;41883;49.544;8.646;2022-09-03T15:44:47;100175.56;;;23.87;nan
55685;BME280;41883;49.544;8.646;2022-09-03T15:47:37;100175.25;;;23.84;nan
55685;BME280;41883;49.544;8.646;2022-09-03T15:55:38;100166.88;;;23.85;nan
55685;BME280;41883;49.544;8.646;2022-09-03T15:58:22;100168.47;;;23.81;nan
55685;BME280;41883;49.544;8.646;2022-09-03T16:01:00;100165.75;;;23.81;nan
55685;BME280;41883;49.544;8.646;2022-09-03T16:03:33;100171.16;;;23.81;nan
55685;BME280;41883;49.544;8.646;2022-09-03T16:06:04;100170.75;;;23.56;nan
55685;BME280;41883;49.544;8.646;2022-09-03T16:11:20;100164.75;;;23.03;nan
55685;BME280;41883;49.544;8.646;2022-09-03T16:14:02;100166.09;;;22.60;nan